Terminal Aerodrome Forecast
Issued by NWS

Home | Current Version | Previous Version | Text Only | Print | Product List | Glossary On
Versions: 1 2 3 4 5 6 7 8 9 10 11 12 13 14 15 16 17 18 19 20 21 22 23 24
000
FTUS41 KOKX 011909 AAA
TAFSWF
TAF AMD
KSWF 011909Z 0119/0224 11008KT 2SM -RADZ BR OVC006
     FM020300 09005KT 2SM -RADZ BR OVC004
     FM021200 07005KT 3SM -RA BR OVC006
     FM021600 VRB05KT 5SM BR SCT008 OVC015
     FM022000 VRB05KT P6SM SCT015 BKN030
      AMD NOT SKED=

USA.gov is the U.S. government's official web portal to all federal, state and local government web resources and services.